Time;durP1;ratioP1;P1;durP2;ratioP2;P2;SDS_P1;SDS_P2;PMS_P1;PMS_P2;Temp;Humidity;BMP_temperature;BMP_pressure;BME280_temperature;BME280_humidity;BME280_pressure;Samples;Min_cycle;Max_cycle;Signal;HPM_P1;HPM_P2
2022/12/25 00:00:40;;;;;;;186.83;49.07;;;5.00;99.90;;;;;;4993064;28;20456;-77
2022/12/25 00:03:06;;;;;;;170.40;48.73;;;5.00;99.90;;;;;;4990541;28;20049;-77
2022/12/25 00:05:32;;;;;;;178.00;48.17;;;5.00;99.90;;;;;;5007920;28;20310;-77
2022/12/25 00:07:57;;;;;;;169.23;47.57;;;5.10;99.90;;;;;;4991693;28;20046;-77
2022/12/25 00:10:23;;;;;;;192.67;48.53;;;5.10;99.90;;;;;;4992826;28;20121;-76
2022/12/25 00:12:49;;;;;;;174.50;48.20;;;5.00;99.90;;;;;;4992904;28;20061;-77
2022/12/25 00:15:14;;;;;;;164.90;45.67;;;5.10;99.90;;;;;;4976030;28;20050;-76
2022/12/25 00:17:40;;;;;;;179.67;46.57;;;5.10;99.90;;;;;;4958112;28;20055;-77
2022/12/25 00:20:06;;;;;;;184.63;45.97;;;5.00;99.90;;;;;;4981787;28;20567;-77
2022/12/25 00:22:32;;;;;;;154.97;45.07;;;5.00;99.90;;;;;;4981294;28;20054;-77
2022/12/25 00:24:58;;;;;;;167.60;46.70;;;5.00;99.90;;;;;;4992634;28;20116;-77
2022/12/25 00:27:23;;;;;;;159.93;44.93;;;5.00;99.90;;;;;;4977076;28;20500;-77
2022/12/25 00:29:49;;;;;;;144.67;42.40;;;5.10;99.90;;;;;;4992926;28;20397;-76
2022/12/25 00:32:15;;;;;;;161.23;42.87;;;5.00;99.90;;;;;;4991968;28;20054;-77
2022/12/25 00:34:40;;;;;;;153.20;41.60;;;5.10;99.90;;;;;;4993378;28;20050;-77
2022/12/25 00:37:06;;;;;;;150.27;43.23;;;5.10;99.90;;;;;;4978125;28;20046;-78
2022/12/25 00:39:32;;;;;;;146.00;42.03;;;5.10;99.90;;;;;;4993104;28;20058;-78
2022/12/25 00:44:42;;;;;;;159.63;44.53;;;5.20;99.90;;;;;;4991777;28;20084;-77
2022/12/25 00:47:07;;;;;;;152.17;44.10;;;5.20;99.90;;;;;;4977605;28;20089;-77
2022/12/25 00:49:33;;;;;;;154.70;46.30;;;5.20;99.90;;;;;;4993153;28;20416;-77
2022/12/25 00:51:58;;;;;;;165.80;47.30;;;5.20;99.90;;;;;;4992960;28;20093;-77
2022/12/25 00:54:24;;;;;;;168.70;50.20;;;5.20;99.90;;;;;;4991101;28;20051;-76
2022/12/25 00:56:50;;;;;;;187.10;52.07;;;5.40;99.90;;;;;;4976595;28;20354;-77
2022/12/25 00:59:16;;;;;;;194.10;53.30;;;5.50;99.90;;;;;;4991990;28;20046;-76
2022/12/25 01:01:41;;;;;;;221.60;54.13;;;5.50;99.90;;;;;;4992873;28;20653;-77
2022/12/25 01:04:08;;;;;;;200.07;52.43;;;5.70;99.90;;;;;;4991854;28;20515;-77
2022/12/25 01:06:34;;;;;;;188.13;55.93;;;5.60;99.90;;;;;;4979306;28;20054;-77
2022/12/25 01:11:44;;;;;;;220.63;58.07;;;5.70;99.90;;;;;;4992678;28;20061;-77
2022/12/25 01:14:10;;;;;;;221.47;57.57;;;5.70;99.90;;;;;;4991481;28;20480;-77
2022/12/25 01:16:36;;;;;;;238.07;59.30;;;5.80;99.90;;;;;;4979381;28;20145;-78
2022/12/25 01:19:01;;;;;;;228.53;65.30;;;5.80;99.90;;;;;;4990194;28;20133;-76
2022/12/25 01:21:27;;;;;;;237.13;63.87;;;5.90;99.90;;;;;;4993827;28;20554;-77
2022/12/25 01:23:53;;;;;;;299.63;70.40;;;5.90;99.90;;;;;;4977627;28;20066;-77
2022/12/25 01:26:21;;;;;;;271.83;67.70;;;5.90;99.90;;;;;;4981439;28;20120;-77
2022/12/25 01:28:48;;;;;;;339.00;68.50;;;6.00;99.90;;;;;;4986956;28;20039;-76
2022/12/25 01:31:17;;;;;;;293.30;71.63;;;6.00;99.90;;;;;;4992674;28;20065;-77
2022/12/25 01:33:44;;;;;;;288.03;68.33;;;6.00;99.90;;;;;;4990219;28;20046;-77
2022/12/25 01:36:15;;;;;;;275.90;75.20;;;6.10;99.90;;;;;;4984786;28;20060;-77
2022/12/25 01:38:42;;;;;;;273.60;61.95;;;6.20;99.90;;;;;;4987392;28;20042;-76
2022/12/25 01:41:08;;;;;;;302.90;66.70;;;6.10;99.90;;;;;;4992344;28;20077;-77
2022/12/25 01:43:33;;;;;;;280.87;66.50;;;6.10;99.90;;;;;;4991203;28;20501;-77
2022/12/25 01:46:02;;;;;;;292.03;68.30;;;6.20;99.90;;;;;;4991585;28;20046;-77
2022/12/25 01:48:38;;;;;;;320.50;73.10;;;6.10;99.90;;;;;;4976108;28;20050;-77
2022/12/25 01:51:10;;;;;;;314.07;70.57;;;6.10;99.90;;;;;;4992674;28;20051;-77
2022/12/25 01:53:35;;;;;;;313.50;66.63;;;6.10;99.90;;;;;;4991111;28;20377;-77
2022/12/25 01:56:06;;;;;;;293.40;68.07;;;6.10;99.90;;;;;;4990930;28;20097;-76
2022/12/25 01:58:32;;;;;;;289.10;66.63;;;6.10;99.90;;;;;;4978663;28;20062;-76
2022/12/25 02:00:58;;;;;;;263.77;67.70;;;6.20;99.90;;;;;;4990478;28;20128;-77
2022/12/25 02:03:24;;;;;;;269.27;72.73;;;6.30;99.90;;;;;;4991094;28;20417;-76
2022/12/25 02:05:51;;;;;;;238.77;61.63;;;6.10;99.90;;;;;;4990971;28;20598;-77
2022/12/25 02:08:18;;;;;;;219.93;62.33;;;6.20;99.90;;;;;;4974439;28;20054;-77
2022/12/25 02:10:45;;;;;;;229.83;63.77;;;6.20;99.90;;;;;;4989780;28;20058;-79
2022/12/25 02:13:16;;;;;;;229.10;62.57;;;6.20;99.90;;;;;;4991364;28;20077;-79
2022/12/25 02:15:55;;;;;;;212.43;65.30;;;6.30;99.90;;;;;;4991275;28;20133;-77
2022/12/25 02:18:41;;;;;;;216.43;81.50;;;6.20;99.90;;;;;;4973686;28;20185;-77
2022/12/25 02:21:43;;;;;;;208.93;63.93;;;6.30;99.90;;;;;;4990256;28;20081;-76
2022/12/25 02:24:14;;;;;;;;;;;6.40;99.90;;;;;;4979568;28;20050;-76
2022/12/25 02:26:40;;;;;;;;;;;6.40;99.90;;;;;;4978097;28;19921;-77
2022/12/25 02:29:06;;;;;;;202.10;57.10;;;6.40;99.90;;;;;;4986853;28;20290;-77
2022/12/25 02:31:39;;;;;;;173.43;60.47;;;6.50;99.90;;;;;;4991938;28;20144;-77
2022/12/25 02:34:12;;;;;;;195.10;65.67;;;6.50;99.90;;;;;;4988094;28;20073;-78
2022/12/25 02:36:56;;;;;;;202.07;68.93;;;6.40;99.90;;;;;;4976291;28;20051;-77
2022/12/25 02:39:57;;;;;;;177.83;59.53;;;6.50;99.90;;;;;;4989451;28;20064;-77
2022/12/25 03:07:41;;;;;;;185.03;55.07;;;6.70;99.90;;;;;;4974689;28;20068;-77
2022/12/25 03:13:05;;;;;;;153.60;56.63;;;6.80;99.90;;;;;;4989787;28;20050;-77
2022/12/25 03:18:23;;;;;;;140.63;57.67;;;6.90;99.90;;;;;;4973843;28;20544;-77
2022/12/25 03:29:05;;;;;;;142.80;55.73;;;6.90;99.90;;;;;;4987832;28;20105;-77
2022/12/25 03:31:52;;;;;;;149.83;58.17;;;7.00;99.90;;;;;;4990169;28;20382;-76
2022/12/25 04:37:04;;;;;;;169.03;77.37;;;7.50;99.90;;;;;;4954026;28;20139;-76
2022/12/25 04:39:30;;;;;;;175.40;84.80;;;7.40;99.90;;;;;;4973553;28;20161;-76
2022/12/25 04:41:55;;;;;;;148.33;84.97;;;7.40;99.90;;;;;;4986971;28;20050;-77
2022/12/25 04:44:21;;;;;;;146.53;72.70;;;7.40;99.90;;;;;;4990538;28;20046;-77
2022/12/25 04:46:47;;;;;;;160.97;77.57;;;7.50;99.90;;;;;;4978012;28;20086;-78
2022/12/25 04:49:12;;;;;;;168.37;72.03;;;7.50;99.90;;;;;;4991951;28;20124;-76
2022/12/25 04:51:38;;;;;;;144.60;62.17;;;7.50;99.90;;;;;;4993210;28;20050;-77
2022/12/25 04:54:04;;;;;;;167.37;70.27;;;7.50;99.90;;;;;;4992417;28;20149;-77
2022/12/25 04:56:30;;;;;;;160.70;77.23;;;7.50;99.90;;;;;;4979868;28;20896;-76
2022/12/25 04:58:55;;;;;;;163.23;67.67;;;7.60;99.90;;;;;;4988435;28;20130;-76
2022/12/25 05:01:21;;;;;;;160.57;69.57;;;7.50;99.90;;;;;;4993160;28;20058;-77
2022/12/25 05:03:47;;;;;;;165.60;60.90;;;7.50;99.90;;;;;;4992205;28;20057;-76
2022/12/25 05:06:12;;;;;;;185.57;97.60;;;7.60;99.90;;;;;;4984485;28;20049;-79
2022/12/25 05:08:38;;;;;;;172.60;65.17;;;7.50;99.90;;;;;;4985774;28;20108;-77
2022/12/25 05:11:08;;;;;;;150.20;61.47;;;7.60;99.90;;;;;;4992318;28;20144;-77
2022/12/25 05:13:34;;;;;;;161.40;76.57;;;7.60;99.90;;;;;;4990962;28;20046;-77
2022/12/25 05:16:04;;;;;;;182.00;152.93;;;7.60;99.90;;;;;;4992634;28;20493;-76
2022/12/25 05:18:30;;;;;;;163.37;69.33;;;7.70;99.90;;;;;;4976672;28;20050;-77
2022/12/25 05:20:55;;;;;;;158.13;75.50;;;7.60;99.90;;;;;;4992373;28;20053;-77
2022/12/25 05:23:22;;;;;;;147.97;75.43;;;7.70;99.90;;;;;;4990367;28;20050;-76
2022/12/25 05:25:48;;;;;;;160.77;98.10;;;7.70;99.90;;;;;;4991885;28;20061;-77
2022/12/25 05:28:14;;;;;;;155.80;67.00;;;7.70;99.90;;;;;;4976047;28;20046;-76
2022/12/25 05:30:40;;;;;;;159.50;96.70;;;7.60;99.90;;;;;;4990904;28;20050;-79
2022/12/25 05:33:05;;;;;;;138.37;64.07;;;7.70;99.90;;;;;;4991961;28;20049;-76
2022/12/25 05:35:31;;;;;;;154.50;91.67;;;7.70;99.90;;;;;;4984803;28;20046;-76
2022/12/25 05:37:57;;;;;;;138.27;71.40;;;7.80;99.90;;;;;;4975483;28;20057;-76
2022/12/25 05:40:22;;;;;;;178.40;133.80;;;7.70;99.90;;;;;;4991606;28;20129;-76
2022/12/25 05:42:48;;;;;;;138.40;65.07;;;7.80;99.90;;;;;;4988934;28;20046;-77
2022/12/25 05:45:14;;;;;;;147.47;58.00;;;7.80;99.90;;;;;;4991175;28;20050;-77
2022/12/25 05:47:39;;;;;;;137.33;60.90;;;7.80;99.90;;;;;;4975389;28;20050;-77
2022/12/25 05:50:06;;;;;;;151.13;88.30;;;7.80;99.90;;;;;;4992035;28;20046;-77
2022/12/25 05:52:32;;;;;;;152.57;82.17;;;7.70;99.90;;;;;;4990934;28;20050;-77
2022/12/25 05:54:58;;;;;;;155.60;86.80;;;7.80;99.90;;;;;;4990918;28;20050;-77
2022/12/25 05:57:27;;;;;;;169.67;120.33;;;7.80;99.90;;;;;;4972376;28;20061;-77
2022/12/25 05:59:53;;;;;;;162.40;84.03;;;7.70;99.90;;;;;;4970402;28;20457;-77
2022/12/25 06:02:18;;;;;;;167.83;87.10;;;7.80;99.90;;;;;;4981028;28;20058;-77
2022/12/25 06:04:44;;;;;;;172.93;78.27;;;7.80;99.90;;;;;;4987498;28;20050;-77
2022/12/25 06:07:10;;;;;;;170.17;96.47;;;7.70;99.90;;;;;;4972923;28;20064;-77
2022/12/25 06:09:37;;;;;;;161.60;68.70;;;7.80;99.90;;;;;;4971004;28;20074;-76
2022/12/25 06:12:02;;;;;;;181.33;92.53;;;7.80;99.90;;;;;;4988715;28;20531;-77
2022/12/25 06:14:28;;;;;;;192.03;82.37;;;7.80;99.90;;;;;;4970176;28;20050;-77
2022/12/25 06:16:54;;;;;;;180.53;97.90;;;7.80;99.90;;;;;;4972168;28;20392;-77
2022/12/25 06:19:20;;;;;;;174.03;106.93;;;7.80;99.90;;;;;;4988471;28;20049;-76
2022/12/25 06:21:46;;;;;;;194.53;105.20;;;7.90;99.90;;;;;;4990774;28;20076;-76
2022/12/25 06:24:12;;;;;;;186.40;87.37;;;7.90;99.90;;;;;;4990593;28;20061;-77
2022/12/25 06:26:37;;;;;;;171.07;87.70;;;7.80;99.90;;;;;;4975245;28;20051;-77
2022/12/25 06:29:03;;;;;;;176.70;99.07;;;7.90;99.90;;;;;;4989254;28;20514;-77
2022/12/25 06:31:29;;;;;;;204.50;107.37;;;7.90;99.90;;;;;;4990675;28;20057;-76
2022/12/25 06:33:55;;;;;;;190.80;118.90;;;7.80;99.90;;;;;;4989667;28;20408;-77
2022/12/25 06:36:26;;;;;;;176.07;84.97;;;7.90;99.90;;;;;;4980357;28;20043;-76
2022/12/25 06:38:52;;;;;;;187.15;69.68;;;7.90;99.90;;;;;;4987542;28;20129;-76
2022/12/25 06:41:23;;;;;;;199.00;98.47;;;7.90;99.90;;;;;;4991167;28;20050;-77
2022/12/25 06:43:50;;;;;;;196.75;116.28;;;7.80;99.90;;;;;;4989350;28;20050;-76
2022/12/25 06:46:17;;;;;;;224.87;105.47;;;7.90;99.90;;;;;;4980890;28;20172;-79
2022/12/25 06:48:52;;;;;;;236.90;102.57;;;7.80;99.90;;;;;;4984304;28;20137;-77
2022/12/25 06:51:20;;;;;;;305.27;149.43;;;7.90;99.90;;;;;;4972199;28;20050;-77
2022/12/25 06:53:47;;;;;;;200.93;104.70;;;7.80;99.90;;;;;;4974265;28;20470;-77
2022/12/25 06:56:15;;;;;;;208.97;136.00;;;7.90;99.90;;;;;;4977258;28;20100;-79
2022/12/25 06:58:45;;;;;;;179.17;92.83;;;7.90;99.90;;;;;;4981162;28;20443;-77
2022/12/25 07:01:17;;;;;;;178.73;90.47;;;7.90;99.90;;;;;;4989334;28;20138;-77
2022/12/25 07:03:44;;;;;;;209.90;123.97;;;7.90;99.90;;;;;;5004435;28;20054;-77
2022/12/25 07:06:10;;;;;;;182.10;70.17;;;7.80;99.90;;;;;;4975082;28;20042;-77
2022/12/25 07:08:35;;;;;;;179.87;86.70;;;7.90;99.90;;;;;;4968061;28;20066;-77
2022/12/25 07:11:01;;;;;;;199.00;67.93;;;7.90;99.90;;;;;;4986585;28;20058;-77
2022/12/25 07:13:27;;;;;;;178.90;67.43;;;8.00;99.90;;;;;;4986224;28;20081;-77
2022/12/25 07:16:02;;;;;;;173.70;69.30;;;7.90;99.90;;;;;;4987203;28;20572;-77
2022/12/25 07:18:29;;;;;;;164.83;68.53;;;8.00;99.90;;;;;;4971203;28;20504;-78
2022/12/25 07:20:55;;;;;;;162.97;70.13;;;8.00;99.90;;;;;;4985994;28;20050;-78
2022/12/25 07:23:21;;;;;;;160.27;64.63;;;7.90;99.90;;;;;;4986375;28;20149;-77
2022/12/25 07:25:57;;;;;;;153.50;65.60;;;8.00;99.90;;;;;;4981757;28;20054;-77
2022/12/25 07:28:23;;;;;;;161.37;63.97;;;8.00;99.90;;;;;;4949390;28;20581;-78
2022/12/25 07:30:49;;;;;;;154.00;79.83;;;7.90;99.90;;;;;;4965048;28;20605;-78
2022/12/25 07:33:15;;;;;;;162.33;71.87;;;8.00;99.90;;;;;;4965934;28;20043;-77
2022/12/25 07:35:41;;;;;;;159.50;73.87;;;8.00;99.90;;;;;;4966231;28;20054;-77
2022/12/25 07:38:07;;;;;;;149.47;58.57;;;8.00;99.90;;;;;;4951085;28;20046;-77
2022/12/25 07:40:33;;;;;;;155.47;67.23;;;8.00;99.90;;;;;;4968250;28;21386;-77
2022/12/25 07:42:58;;;;;;;148.03;62.17;;;8.00;99.90;;;;;;4996899;28;20093;-77
2022/12/25 07:45:24;;;;;;;142.03;58.27;;;7.90;99.90;;;;;;4966813;28;20047;-77
2022/12/25 07:47:50;;;;;;;145.03;61.77;;;7.90;99.90;;;;;;4949114;28;20056;-77
2022/12/25 07:50:16;;;;;;;132.63;59.43;;;8.00;99.90;;;;;;4966660;28;20042;-77
2022/12/25 07:52:42;;;;;;;130.57;57.77;;;8.00;99.90;;;;;;4967014;28;20528;-77
2022/12/25 07:55:09;;;;;;;128.27;70.00;;;8.00;99.90;;;;;;4971560;28;20366;-77
2022/12/25 07:57:35;;;;;;;126.33;57.57;;;8.00;99.90;;;;;;4959984;28;20061;-77
2022/12/25 08:00:05;;;;;;;136.57;60.63;;;8.10;99.90;;;;;;4976144;28;20054;-77
2022/12/25 08:02:31;;;;;;;139.30;87.83;;;8.00;99.90;;;;;;4979518;28;20097;-77
2022/12/25 08:04:57;;;;;;;115.07;61.67;;;8.00;99.90;;;;;;4968580;28;20074;-77
2022/12/25 08:07:23;;;;;;;116.37;50.27;;;8.10;99.90;;;;;;4972380;28;20081;-77
2022/12/25 08:09:49;;;;;;;124.43;82.07;;;8.00;99.90;;;;;;5001985;28;20086;-77
2022/12/25 08:12:15;;;;;;;136.33;108.63;;;8.10;99.90;;;;;;4971864;28;20493;-77
2022/12/25 08:14:41;;;;;;;154.47;128.07;;;8.10;99.90;;;;;;4974412;28;20787;-77
2022/12/25 08:17:06;;;;;;;120.13;78.73;;;8.00;99.90;;;;;;5002906;28;20057;-77
2022/12/25 08:19:32;;;;;;;118.83;61.20;;;8.10;99.90;;;;;;4973345;28;20166;-77
2022/12/25 08:21:58;;;;;;;123.90;84.83;;;8.00;99.90;;;;;;4984960;28;20537;-77
2022/12/25 08:24:23;;;;;;;122.27;88.70;;;8.10;99.90;;;;;;4991519;28;20046;-77
2022/12/25 08:26:49;;;;;;;115.60;74.50;;;8.00;99.90;;;;;;4990661;28;20058;-77
2022/12/25 08:29:15;;;;;;;109.03;74.13;;;8.10;99.90;;;;;;4987443;28;20105;-77
2022/12/25 08:31:42;;;;;;;99.87;71.07;;;8.10;99.90;;;;;;4991066;28;20045;-77
2022/12/25 08:34:09;;;;;;;107.77;75.37;;;8.20;99.90;;;;;;4991183;28;20050;-77
2022/12/25 08:36:36;;;;;;;97.90;67.87;;;8.20;99.90;;;;;;4987407;28;20133;-77
2022/12/25 08:39:03;;;;;;;107.23;80.30;;;8.20;99.90;;;;;;4976030;28;20097;-77
2022/12/25 08:41:29;;;;;;;99.60;84.93;;;8.10;99.90;;;;;;4979170;28;20421;-77
2022/12/25 08:43:54;;;;;;;105.67;93.03;;;8.30;99.90;;;;;;4981423;28;20043;-76
2022/12/25 08:46:20;;;;;;;111.17;99.90;;;8.10;99.90;;;;;;4988697;28;20129;-77
2022/12/25 08:48:47;;;;;;;85.30;75.97;;;8.20;99.90;;;;;;4970935;28;20042;-76
2022/12/25 08:51:19;;;;;;;111.10;99.70;;;8.20;99.90;;;;;;4974335;28;20073;-77
2022/12/25 08:53:47;;;;;;;87.77;78.23;;;8.30;99.90;;;;;;4991890;28;20404;-77
2022/12/25 08:56:13;;;;;;;79.10;70.57;;;8.30;99.90;;;;;;4978339;28;20532;-77
2022/12/25 08:58:39;;;;;;;83.37;75.07;;;8.30;99.90;;;;;;4971037;28;20054;-77
2022/12/25 09:01:05;;;;;;;86.50;77.33;;;8.30;99.90;;;;;;4973442;28;20109;-76
2022/12/25 09:03:32;;;;;;;78.93;68.63;;;8.20;99.90;;;;;;4970156;28;20324;-77
2022/12/25 09:06:02;;;;;;;77.57;69.73;;;8.20;99.90;;;;;;4968683;28;20055;-77
2022/12/25 09:08:28;;;;;;;89.30;80.72;;;8.30;99.90;;;;;;4969749;28;20093;-79
2022/12/25 09:10:54;;;;;;;80.17;71.53;;;8.30;99.90;;;;;;4971424;28;20047;-77
2022/12/25 09:13:20;;;;;;;78.90;70.50;;;8.30;99.90;;;;;;4970793;28;20050;-78
2022/12/25 09:15:46;;;;;;;88.70;80.27;;;8.30;99.90;;;;;;4973286;28;20607;-78
2022/12/25 09:18:11;;;;;;;80.93;72.73;;;8.30;99.90;;;;;;4971053;28;20141;-77
2022/12/25 09:20:37;;;;;;;81.83;73.33;;;8.30;99.90;;;;;;4987686;28;20157;-77
2022/12/25 09:23:03;;;;;;;74.93;67.60;;;8.40;99.90;;;;;;4990186;28;20532;-79
2022/12/25 09:25:28;;;;;;;75.47;68.57;;;8.30;99.90;;;;;;4991136;28;20169;-77
2022/12/25 09:27:55;;;;;;;74.73;67.23;;;8.40;99.90;;;;;;4976343;28;20133;-77
2022/12/25 09:30:21;;;;;;;77.27;69.47;;;8.40;99.90;;;;;;4981900;28;20050;-78
2022/12/25 09:32:47;;;;;;;80.10;72.80;;;8.40;99.90;;;;;;4973982;28;20511;-78
2022/12/25 09:35:16;;;;;;;71.63;64.87;;;8.40;99.90;;;;;;4978471;28;20051;-77
2022/12/25 09:37:42;;;;;;;72.03;64.67;;;8.30;99.90;;;;;;4986011;28;20104;-78
2022/12/25 09:40:14;;;;;;;71.87;64.97;;;8.30;99.90;;;;;;4967716;28;20537;-79
2022/12/25 09:42:40;;;;;;;73.97;66.87;;;8.40;99.90;;;;;;4967222;28;20065;-78
2022/12/25 09:45:37;;;;;;;68.33;62.00;;;8.40;99.90;;;;;;4979516;28;20061;-78
2022/12/25 09:48:03;;;;;;;59.13;53.57;;;8.40;99.90;;;;;;4962758;28;20271;-78
2022/12/25 09:50:50;;;;;;;72.50;66.13;;;8.50;99.90;;;;;;4988363;28;20464;-78
2022/12/25 09:53:25;;;;;;;66.33;60.33;;;8.40;99.90;;;;;;4984779;28;20046;-79
2022/12/25 09:56:02;;;;;;;65.97;59.87;;;8.50;99.90;;;;;;4977809;28;20552;-78
2022/12/25 09:58:29;;;;;;;69.40;63.40;;;8.40;99.90;;;;;;4947640;28;20050;-79
2022/12/25 10:01:39;;;;;;;77.37;70.67;;;8.40;99.90;;;;;;4985360;28;20054;-78
2022/12/25 10:04:14;;;;;;;67.10;61.23;;;8.50;99.90;;;;;;4961615;28;20197;-78
2022/12/25 10:07:15;;;;;;;37.17;32.83;;;8.50;99.90;;;;;;4975508;28;20401;-78
2022/12/25 10:09:59;;;;;;;33.45;23.63;;;8.50;99.90;;;;;;4946092;29;20540;-79
2022/12/25 10:13:04;;;;;;;64.47;58.63;;;8.50;99.90;;;;;;4973516;28;20058;-78
2022/12/25 10:16:10;;;;;;;66.10;60.17;;;8.50;99.90;;;;;;4966472;28;20093;-78
2022/12/25 10:19:00;;;;;;;89.53;82.93;;;8.50;99.90;;;;;;4908617;28;20054;-78
2022/12/25 10:21:26;;;;;;;60.60;55.07;;;8.40;99.90;;;;;;4969949;28;20089;-78
2022/12/25 10:24:30;;;;;;;69.97;64.17;;;8.40;99.90;;;;;;4967485;28;20070;-78
2022/12/25 10:26:55;;;;;;;64.80;59.10;;;8.50;99.90;;;;;;4955060;28;20051;-78
2022/12/25 10:29:21;;;;;;;68.20;62.53;;;8.40;99.90;;;;;;4964835;28;20502;-78
2022/12/25 10:31:54;;;;;;;70.47;64.90;;;8.40;99.90;;;;;;4966764;28;20457;-78
2022/12/25 10:34:20;;;;;;;60.27;55.83;;;8.50;99.90;;;;;;4969092;28;20042;-78
2022/12/25 10:36:47;;;;;;;74.03;68.67;;;8.50;99.90;;;;;;4953864;28;20042;-78
2022/12/25 10:39:17;;;;;;;79.30;73.43;;;8.60;99.90;;;;;;4966846;28;20430;-78
2022/12/25 10:42:02;;;;;;;66.03;60.65;;;8.50;99.90;;;;;;4966856;28;20050;-78
2022/12/25 10:44:28;;;;;;;77.77;72.17;;;8.50;99.90;;;;;;4981163;28;20432;-78
2022/12/25 10:46:56;;;;;;;69.20;63.37;;;8.60;99.90;;;;;;4952599;28;20051;-78
2022/12/25 10:49:25;;;;;;;49.67;44.97;;;8.50;99.90;;;;;;4966047;28;20164;-78
2022/12/25 10:51:51;;;;;;;64.97;59.57;;;8.60;99.90;;;;;;4966790;28;20101;-78
2022/12/25 10:54:32;;;;;;;65.97;60.90;;;8.50;99.90;;;;;;4967178;28;20035;-78
2022/12/25 10:56:59;;;;;;;68.50;63.15;;;8.50;99.90;;;;;;4951551;28;20059;-78
2022/12/25 10:59:27;;;;;;;81.57;75.47;;;8.50;99.90;;;;;;4964968;28;20054;-78
2022/12/25 11:01:55;;;;;;;77.77;71.93;;;8.60;99.90;;;;;;4966241;28;20672;-78
2022/12/25 11:04:27;;;;;;;82.70;76.90;;;8.50;99.90;;;;;;4965726;28;20046;-78
2022/12/25 11:07:23;;;;;;;70.10;64.53;;;8.50;99.90;;;;;;4949780;28;20127;-79
2022/12/25 11:09:57;;;;;;;77.73;71.77;;;8.50;99.90;;;;;;4964391;28;20074;-79
2022/12/25 11:12:44;;;;;;;60.97;56.07;;;8.50;99.90;;;;;;4965121;28;20050;-79
2022/12/25 11:15:30;;;;;;;72.17;65.77;;;8.60;99.90;;;;;;4967894;28;20054;-79
2022/12/25 11:17:56;;;;;;;60.53;55.50;;;8.50;99.90;;;;;;4953511;28;20058;-79
2022/12/25 11:20:23;;;;;;;71.13;65.53;;;8.60;99.90;;;;;;4976397;28;20072;-78
2022/12/25 11:22:49;;;;;;;76.10;70.55;;;8.60;99.90;;;;;;4977892;28;20062;-78
2022/12/25 11:25:22;;;;;;;151.10;142.07;;;8.60;99.90;;;;;;4975679;28;20052;-77
2022/12/25 11:28:03;;;;;;;70.33;65.33;;;8.60;99.90;;;;;;4955390;28;20047;-78
2022/12/25 11:30:31;;;;;;;47.05;43.20;;;8.60;99.90;;;;;;4981594;28;20043;-78
2022/12/25 11:33:04;;;;;;;65.40;60.53;;;8.60;99.90;;;;;;4975033;28;20047;-78
2022/12/25 11:35:33;;;;;;;67.03;61.97;;;8.70;99.90;;;;;;4969456;28;20429;-78
2022/12/25 11:37:59;;;;;;;61.93;56.57;;;8.60;99.90;;;;;;4951039;28;20047;-79
2022/12/25 11:40:49;;;;;;;41.17;37.27;;;8.60;99.90;;;;;;4964788;28;20409;-78
2022/12/25 11:43:30;;;;;;;54.67;50.20;;;8.70;99.90;;;;;;4965011;28;20610;-78
2022/12/25 11:46:00;;;;;;;54.75;49.92;;;8.70;99.90;;;;;;4966243;28;20117;-78
2022/12/25 11:48:42;;;;;;;54.03;50.00;;;8.70;99.90;;;;;;4950684;28;20050;-78
2022/12/25 11:51:09;;;;;;;65.53;60.85;;;8.70;99.90;;;;;;4967047;28;20047;-78
2022/12/25 11:53:49;;;;;;;65.57;61.03;;;8.70;99.90;;;;;;4968392;28;20046;-78
2022/12/25 11:56:20;;;;;;;66.82;62.00;;;8.60;99.90;;;;;;4958398;28;20058;-79
2022/12/25 11:58:52;;;;;;;44.90;41.67;;;8.70;99.90;;;;;;4961393;28;20123;-79
2022/12/25 12:01:35;;;;;;;47.27;43.33;;;8.70;99.90;;;;;;4972515;28;20444;-78
2022/12/25 12:04:05;;;;;;;62.73;57.80;;;8.60;99.90;;;;;;4964241;28;20484;-79
2022/12/25 12:06:53;;;;;;;51.23;47.03;;;8.70;99.90;;;;;;4967802;28;20427;-78
2022/12/25 12:09:43;;;;;;;58.33;53.77;;;8.70;99.90;;;;;;4985236;28;20412;-78
2022/12/25 12:12:49;;;;;;;59.30;54.50;;;8.70;99.90;;;;;;4977604;28;20058;-78
2022/12/25 12:15:18;;;;;;;58.53;54.03;;;8.70;99.90;;;;;;4980576;28;20047;-78
2022/12/25 12:17:44;;;;;;;54.33;50.37;;;8.70;99.90;;;;;;4971307;28;20428;-78
2022/12/25 12:20:27;;;;;;;57.97;53.43;;;8.70;99.90;;;;;;4985832;28;20050;-78
2022/12/25 12:22:53;;;;;;;56.13;51.30;;;8.70;99.90;;;;;;4984935;28;20508;-78
2022/12/25 12:25:20;;;;;;;48.43;44.63;;;8.70;99.90;;;;;;5000888;28;20054;-78
2022/12/25 12:27:55;;;;;;;51.20;47.20;;;8.70;99.90;;;;;;4970753;28;20077;-78
2022/12/25 12:30:28;;;;;;;52.80;48.53;;;8.70;99.90;;;;;;4986751;28;20412;-78
2022/12/25 12:33:00;;;;;;;55.97;50.30;;;8.60;99.90;;;;;;4986596;28;20054;-78
2022/12/25 12:35:30;;;;;;;56.83;51.90;;;8.70;99.90;;;;;;5000963;28;20546;-78
2022/12/25 12:38:03;;;;;;;51.33;46.70;;;8.70;99.90;;;;;;4970184;28;20404;-78
2022/12/25 12:40:36;;;;;;;54.70;50.67;;;8.70;99.90;;;;;;4986022;28;20053;-78
2022/12/25 12:43:03;;;;;;;42.53;39.27;;;8.70;99.90;;;;;;4965076;28;20066;-78
2022/12/25 12:45:32;;;;;;;54.73;50.77;;;8.70;99.90;;;;;;4965593;28;20516;-78
2022/12/25 12:47:58;;;;;;;61.93;57.20;;;8.70;99.90;;;;;;4949640;28;20097;-78
2022/12/25 12:50:35;;;;;;;66.43;61.63;;;8.70;99.90;;;;;;4965873;28;20046;-78
2022/12/25 12:53:22;;;;;;;71.93;66.73;;;8.70;99.90;;;;;;4999874;28;20051;-78
2022/12/25 12:55:49;;;;;;;74.97;69.30;;;8.70;99.90;;;;;;4970025;28;20066;-78
2022/12/25 12:58:32;;;;;;;50.90;46.93;;;8.60;99.90;;;;;;4973088;28;20056;-78
2022/12/25 13:01:10;;;;;;;58.90;54.50;;;8.70;99.90;;;;;;4988465;28;20120;-78
2022/12/25 13:03:57;;;;;;;46.07;42.13;;;8.70;99.90;;;;;;4979672;28;20047;-79
2022/12/25 13:06:40;;;;;;;34.73;31.43;;;8.60;99.90;;;;;;4957570;28;20058;-78
2022/12/25 13:09:26;;;;;;;35.33;32.10;;;8.70;99.90;;;;;;4983447;28;20103;-78
2022/12/25 13:11:52;;;;;;;39.27;35.20;;;8.70;99.90;;;;;;4968974;28;20097;-78
2022/12/25 13:14:21;;;;;;;42.67;38.70;;;8.70;99.90;;;;;;4969883;28;20141;-79
2022/12/25 13:16:50;;;;;;;40.27;36.37;;;8.70;99.90;;;;;;4949600;28;20093;-78
2022/12/25 13:19:22;;;;;;;45.60;41.70;;;8.60;99.90;;;;;;4983971;28;20133;-78
2022/12/25 13:21:59;;;;;;;55.30;51.40;;;8.70;99.90;;;;;;4988479;28;20050;-78
2022/12/25 13:24:30;;;;;;;83.40;78.17;;;8.70;99.90;;;;;;4980384;28;20046;-78
2022/12/25 13:26:56;;;;;;;78.18;72.63;;;8.70;99.90;;;;;;4972598;28;20488;-78
2022/12/25 13:29:35;;;;;;;81.03;75.57;;;8.80;99.90;;;;;;4986885;28;20515;-78
2022/12/25 13:32:04;;;;;;;64.23;58.93;;;8.70;99.90;;;;;;4988081;28;20046;-79
2022/12/25 13:34:35;;;;;;;52.80;48.50;;;8.80;99.90;;;;;;4989152;28;20058;-78
2022/12/25 13:37:12;;;;;;;61.70;56.55;;;8.80;99.90;;;;;;4972158;28;20464;-79
2022/12/25 13:39:50;;;;;;;66.23;61.60;;;8.80;99.90;;;;;;4970648;28;20406;-78
2022/12/25 13:42:19;;;;;;;55.43;50.93;;;8.80;99.90;;;;;;4988183;28;20077;-79
2022/12/25 13:44:56;;;;;;;57.47;52.93;;;8.70;99.90;;;;;;4987527;28;20082;-78
2022/12/25 13:47:25;;;;;;;40.77;37.13;;;8.80;99.90;;;;;;4972675;28;20073;-78
2022/12/25 13:49:53;;;;;;;54.60;50.07;;;8.80;99.90;;;;;;4988722;28;20132;-78
2022/12/25 13:52:47;;;;;;;52.97;48.73;;;8.70;99.90;;;;;;4987022;28;20058;-79
2022/12/25 13:55:17;;;;;;;42.87;39.07;;;8.70;99.90;;;;;;4987392;28;20619;-78
2022/12/25 13:57:46;;;;;;;59.13;53.93;;;8.70;99.90;;;;;;4959925;28;20695;-79
2022/12/25 14:00:26;;;;;;;47.93;43.57;;;8.70;99.90;;;;;;4985247;28;20058;-79
2022/12/25 14:02:52;;;;;;;52.70;48.30;;;8.70;99.90;;;;;;4986353;28;20081;-78
2022/12/25 14:05:30;;;;;;;45.60;41.60;;;8.80;99.90;;;;;;4983889;28;20492;-78
2022/12/25 14:07:59;;;;;;;40.40;36.73;;;8.70;99.90;;;;;;4971471;28;20393;-79
2022/12/25 14:10:29;;;;;;;45.30;41.63;;;8.80;99.90;;;;;;4981224;28;20105;-78
2022/12/25 14:12:58;;;;;;;51.83;47.67;;;8.80;99.90;;;;;;4985065;28;20407;-78
2022/12/25 14:15:28;;;;;;;44.47;40.83;;;8.70;99.90;;;;;;4981504;28;20065;-78
2022/12/25 14:17:54;;;;;;;60.43;56.03;;;8.70;99.90;;;;;;4971325;28;20101;-78
2022/12/25 14:20:23;;;;;;;47.50;43.83;;;8.80;99.90;;;;;;4986575;28;20528;-78
2022/12/25 14:22:52;;;;;;;47.00;42.93;;;8.70;99.90;;;;;;4986304;28;20054;-78
2022/12/25 14:25:19;;;;;;;67.20;62.60;;;8.80;99.90;;;;;;4979888;28;20116;-78
2022/12/25 14:27:51;;;;;;;47.77;43.27;;;8.70;99.90;;;;;;4961367;28;20049;-78
2022/12/25 14:30:17;;;;;;;49.83;45.47;;;8.80;99.90;;;;;;4981433;28;20046;-78
2022/12/25 14:32:49;;;;;;;45.33;41.47;;;8.70;99.90;;;;;;4983369;28;20088;-79